Time;durP1;ratioP1;P1;durP2;ratioP2;P2;SDS_P1;SDS_P2;PMS_P1;PMS_P2;Temp;Humidity;BMP_temperature;BMP_pressure;BME280_temperature;BME280_humidity;BME280_pressure;Samples;Min_cycle;Max_cycle;Signal;HPM_P1;HPM_P2
2023/05/05 00:00:58;;;;;;;7.70;3.90;;;12.40;99.90;;;;;;5053157;28;20051;-77
2023/05/05 00:03:24;;;;;;;6.88;3.50;;;12.40;99.90;;;;;;5055062;28;20041;-76
2023/05/05 00:05:53;;;;;;;6.63;3.80;;;12.40;99.90;;;;;;5053901;28;20053;-77
2023/05/05 00:08:19;;;;;;;4.78;3.60;;;12.40;99.90;;;;;;5053881;28;20048;-76
2023/05/05 00:10:51;;;;;;;5.68;3.90;;;12.40;99.90;;;;;;5054137;28;20106;-76
2023/05/05 00:13:18;;;;;;;6.10;4.13;;;12.40;99.90;;;;;;5054509;28;20107;-77
2023/05/05 00:15:46;;;;;;;6.70;4.15;;;12.40;99.90;;;;;;5053262;28;20060;-79
2023/05/05 00:18:14;;;;;;;7.00;4.07;;;12.30;99.90;;;;;;5054873;28;20048;-76
2023/05/05 00:20:40;;;;;;;6.22;3.97;;;12.30;99.90;;;;;;5054215;28;20071;-77
2023/05/05 00:23:06;;;;;;;6.45;3.78;;;12.30;99.90;;;;;;5054788;28;20046;-76
2023/05/05 00:25:31;;;;;;;5.45;3.92;;;12.30;99.90;;;;;;5054226;28;20102;-77
2023/05/05 00:27:57;;;;;;;5.35;3.60;;;12.30;99.90;;;;;;5053481;28;20106;-76
2023/05/05 00:30:23;;;;;;;5.60;3.60;;;12.20;99.90;;;;;;5054693;28;20127;-76
2023/05/05 00:32:49;;;;;;;5.93;3.75;;;12.20;99.90;;;;;;5053213;28;20596;-76
2023/05/05 00:35:16;;;;;;;6.97;3.88;;;12.20;99.90;;;;;;5053354;28;20527;-76
2023/05/05 00:37:43;;;;;;;7.00;4.57;;;12.20;99.90;;;;;;5054082;28;20099;-76
2023/05/05 00:40:10;;;;;;;7.50;4.25;;;12.20;99.90;;;;;;5053862;28;20127;-76
2023/05/05 00:42:46;;;;;;;5.35;3.80;;;12.20;99.90;;;;;;5035739;28;20049;-76
2023/05/05 00:45:13;;;;;;;7.40;4.18;;;12.20;99.90;;;;;;5053555;28;20482;-76
2023/05/05 00:47:41;;;;;;;6.07;3.95;;;12.20;99.90;;;;;;5054319;28;20052;-76
2023/05/05 00:50:08;;;;;;;7.43;3.92;;;12.20;99.90;;;;;;5054569;28;20083;-76
2023/05/05 00:52:37;;;;;;;5.68;3.72;;;12.10;99.90;;;;;;5052819;28;20182;-76
2023/05/05 00:55:04;;;;;;;7.00;3.85;;;12.10;99.90;;;;;;5053844;28;20048;-76
2023/05/05 00:57:31;;;;;;;8.00;3.80;;;12.20;99.90;;;;;;5053716;28;20044;-76
2023/05/05 00:59:58;;;;;;;4.82;4.20;;;12.10;99.90;;;;;;5053659;28;20084;-76
2023/05/05 01:02:24;;;;;;;5.95;3.75;;;12.10;99.90;;;;;;5053677;28;20407;-76
2023/05/05 01:04:50;;;;;;;5.70;3.88;;;12.10;99.90;;;;;;5053681;28;20059;-76
2023/05/05 01:07:32;;;;;;;5.15;3.95;;;12.00;99.90;;;;;;5052565;28;20064;-77
2023/05/05 01:10:07;;;;;;;6.57;3.95;;;12.00;99.90;;;;;;5053358;28;20474;-77
2023/05/05 01:12:46;;;;;;;6.45;4.00;;;12.00;99.90;;;;;;5054105;28;20064;-76
2023/05/05 01:15:20;;;;;;;6.00;4.40;;;12.00;99.90;;;;;;5054424;28;20106;-76
2023/05/05 01:17:54;;;;;;;7.05;4.03;;;11.90;99.90;;;;;;5053477;28;20059;-77
2023/05/05 01:20:35;;;;;;;5.78;3.63;;;11.90;99.90;;;;;;5053445;28;20076;-76
2023/05/05 01:23:05;;;;;;;5.15;3.67;;;11.90;99.90;;;;;;5054047;28;20045;-76
2023/05/05 01:25:58;;;;;;;6.97;4.05;;;11.90;99.90;;;;;;5053269;28;20057;-75
2023/05/05 01:29:00;;;;;;;5.82;3.83;;;11.90;99.90;;;;;;5054200;28;20052;-76
2023/05/05 01:31:53;;;;;;;5.38;3.70;;;11.80;99.90;;;;;;5052264;28;20052;-75
2023/05/05 01:34:27;;;;;;;4.95;3.70;;;11.80;99.90;;;;;;5053237;28;20120;-77
2023/05/05 01:37:08;;;;;;;5.85;3.80;;;11.80;99.90;;;;;;5053054;28;20494;-77
2023/05/05 01:39:36;;;;;;;5.70;4.05;;;11.80;99.90;;;;;;5052339;28;20490;-76
2023/05/05 01:42:07;;;;;;;7.70;3.80;;;11.80;99.90;;;;;;5051970;28;20045;-76
2023/05/05 01:44:35;;;;;;;4.70;3.83;;;11.80;99.90;;;;;;5053336;28;20056;-76
2023/05/05 01:47:03;;;;;;;5.57;3.33;;;11.80;99.90;;;;;;5053889;28;20041;-76
2023/05/05 01:49:30;;;;;;;5.55;3.60;;;11.80;99.90;;;;;;5057325;28;20436;-76
2023/05/05 01:51:57;;;;;;;5.93;3.58;;;11.80;99.90;;;;;;5056957;28;20092;-77
2023/05/05 01:54:24;;;;;;;4.63;3.70;;;11.90;99.90;;;;;;5056211;28;20409;-76
2023/05/05 01:56:53;;;;;;;5.65;3.78;;;11.90;99.90;;;;;;5057054;28;20045;-76
2023/05/05 01:59:20;;;;;;;5.13;3.47;;;11.90;99.90;;;;;;5056699;28;20511;-77
2023/05/05 02:01:47;;;;;;;5.20;3.65;;;11.90;99.90;;;;;;5039330;28;20088;-76
2023/05/05 02:04:16;;;;;;;6.43;3.72;;;11.90;99.90;;;;;;5057727;28;20086;-77
2023/05/05 02:06:45;;;;;;;5.35;3.45;;;11.90;99.90;;;;;;5056845;28;20552;-76
2023/05/05 02:09:13;;;;;;;8.38;3.67;;;11.90;99.90;;;;;;5057375;28;20056;-77
2023/05/05 02:11:39;;;;;;;5.25;3.70;;;11.80;99.90;;;;;;5056807;28;20052;-76
2023/05/05 02:14:06;;;;;;;5.70;3.83;;;11.80;99.90;;;;;;5056025;28;20052;-76
2023/05/05 02:16:34;;;;;;;5.75;3.70;;;11.80;99.90;;;;;;5038733;28;20053;-77
2023/05/05 02:19:03;;;;;;;5.00;3.65;;;11.80;99.90;;;;;;5057242;28;20080;-76
2023/05/05 02:21:30;;;;;;;5.47;3.70;;;11.80;99.90;;;;;;5057467;28;20359;-77
2023/05/05 02:23:57;;;;;;;5.82;4.05;;;11.80;99.90;;;;;;5055585;28;20470;-76
2023/05/05 02:26:23;;;;;;;4.88;3.90;;;11.80;99.90;;;;;;5055854;28;20060;-76
2023/05/05 02:29:01;;;;;;;7.57;3.80;;;11.70;99.90;;;;;;5056431;28;20132;-76
2023/05/05 02:31:28;;;;;;;5.90;4.15;;;11.70;99.90;;;;;;5057478;28;20049;-76
2023/05/05 02:33:56;;;;;;;6.43;3.40;;;11.70;99.90;;;;;;5056897;28;20111;-76
2023/05/05 02:36:27;;;;;;;6.55;4.00;;;11.70;99.90;;;;;;5055631;28;20052;-76
2023/05/05 02:38:56;;;;;;;5.85;3.72;;;11.70;99.90;;;;;;5056960;28;20560;-77
2023/05/05 02:41:24;;;;;;;6.65;3.97;;;11.60;99.90;;;;;;5056506;28;20099;-76
2023/05/05 02:43:51;;;;;;;7.47;3.90;;;11.60;99.90;;;;;;5056231;28;20049;-76
2023/05/05 02:46:16;;;;;;;4.97;3.60;;;11.60;99.90;;;;;;5055134;28;20055;-76
2023/05/05 02:48:43;;;;;;;4.63;3.50;;;11.60;99.90;;;;;;5056159;28;20105;-76
2023/05/05 02:51:09;;;;;;;6.55;3.90;;;11.60;99.90;;;;;;5056564;28;20440;-77
2023/05/05 02:53:35;;;;;;;5.22;3.80;;;11.50;99.90;;;;;;5039158;28;20045;-76
2023/05/05 02:56:16;;;;;;;5.00;3.53;;;11.50;99.90;;;;;;5055053;28;20048;-76
2023/05/05 02:59:08;;;;;;;7.50;3.80;;;11.50;99.90;;;;;;5054576;28;20374;-76
2023/05/05 03:01:55;;;;;;;5.95;3.70;;;11.50;99.90;;;;;;5056412;28;20049;-77
2023/05/05 03:04:49;;;;;;;5.68;3.55;;;11.40;99.90;;;;;;5056409;28;20136;-76
2023/05/05 03:07:39;;;;;;;5.07;3.65;;;11.50;99.90;;;;;;5054817;28;20055;-77
2023/05/05 03:10:19;;;;;;;7.82;3.88;;;11.50;99.90;;;;;;5056005;28;20481;-76
2023/05/05 03:12:53;;;;;;;6.30;3.75;;;11.50;99.90;;;;;;5056325;28;20524;-76
2023/05/05 03:15:25;;;;;;;5.80;3.90;;;11.50;99.90;;;;;;5055682;28;20041;-76
2023/05/05 03:17:52;;;;;;;5.28;3.78;;;11.50;99.90;;;;;;5055547;28;20052;-76
2023/05/05 03:20:20;;;;;;;7.28;4.15;;;11.50;99.90;;;;;;5054612;28;20123;-77
2023/05/05 03:22:46;;;;;;;7.07;4.25;;;11.50;99.90;;;;;;5054443;28;20061;-76
2023/05/05 03:25:12;;;;;;;6.45;4.00;;;11.40;99.90;;;;;;5054729;28;20067;-76
2023/05/05 03:27:37;;;;;;;4.85;4.00;;;11.30;99.90;;;;;;5054651;28;20045;-77
2023/05/05 03:30:03;;;;;;;5.70;3.90;;;11.30;99.90;;;;;;5055286;28;20393;-76
2023/05/05 03:32:29;;;;;;;6.10;3.95;;;11.20;99.90;;;;;;5054256;28;20045;-76
2023/05/05 03:34:55;;;;;;;5.78;3.83;;;11.20;99.90;;;;;;5055249;28;20138;-76
2023/05/05 03:37:21;;;;;;;7.40;4.63;;;11.10;99.90;;;;;;5055509;28;20061;-76
2023/05/05 03:39:46;;;;;;;8.23;6.50;;;11.10;99.90;;;;;;5054063;28;20469;-77
2023/05/05 03:42:12;;;;;;;6.72;4.22;;;11.10;99.90;;;;;;5054987;28;20057;-76
2023/05/05 03:44:38;;;;;;;5.85;4.00;;;11.00;99.90;;;;;;5055034;28;20135;-77
2023/05/05 03:47:04;;;;;;;8.02;4.40;;;11.00;99.90;;;;;;5055404;28;20087;-76
2023/05/05 03:49:29;;;;;;;5.97;3.97;;;11.00;99.90;;;;;;5053980;28;20103;-76
2023/05/05 03:51:55;;;;;;;6.70;4.63;;;11.00;99.90;;;;;;5054221;28;20417;-76
2023/05/05 03:54:21;;;;;;;5.50;4.15;;;11.00;99.90;;;;;;5055361;28;20049;-77
2023/05/05 03:56:46;;;;;;;5.30;3.72;;;11.00;99.90;;;;;;5054752;28;20045;-77
2023/05/05 03:59:12;;;;;;;5.05;4.13;;;11.10;99.90;;;;;;5037447;28;20081;-77
2023/05/05 04:01:38;;;;;;;5.88;4.32;;;11.10;99.90;;;;;;5053329;28;20041;-76
2023/05/05 04:04:03;;;;;;;7.72;4.30;;;11.10;99.90;;;;;;5054609;28;20075;-77
2023/05/05 04:06:30;;;;;;;7.43;3.90;;;11.10;99.90;;;;;;5054573;28;20128;-76
2023/05/05 04:08:56;;;;;;;7.03;4.38;;;11.20;99.90;;;;;;5054482;28;20084;-76
2023/05/05 04:11:22;;;;;;;7.55;3.85;;;11.20;99.90;;;;;;5053749;28;20453;-76
2023/05/05 04:13:48;;;;;;;6.68;4.35;;;11.30;99.90;;;;;;5054514;28;20124;-77
2023/05/05 04:16:15;;;;;;;5.32;4.15;;;11.40;99.90;;;;;;5054410;28;20124;-75
2023/05/05 04:18:40;;;;;;;8.82;4.68;;;11.40;99.90;;;;;;5054408;28;20056;-75
2023/05/05 04:21:06;;;;;;;8.73;4.38;;;11.40;99.90;;;;;;5036454;28;20033;-74
2023/05/05 04:23:32;;;;;;;10.57;5.90;;;11.30;99.90;;;;;;5055879;28;20090;-75
2023/05/05 04:25:57;;;;;;;7.97;5.70;;;11.20;99.90;;;;;;5055606;28;20081;-75
2023/05/05 04:28:23;;;;;;;8.63;5.30;;;11.00;99.90;;;;;;5056942;28;20045;-74
2023/05/05 04:30:49;;;;;;;7.35;5.68;;;10.80;99.90;;;;;;5053350;28;20055;-75
2023/05/05 04:33:14;;;;;;;6.97;5.15;;;10.60;99.90;;;;;;5054578;28;20045;-75
2023/05/05 04:35:40;;;;;;;6.57;5.30;;;10.50;99.90;;;;;;5053244;28;20371;-75
2023/05/05 04:38:06;;;;;;;9.73;5.60;;;10.40;99.90;;;;;;5053775;28;20107;-76
2023/05/05 04:40:31;;;;;;;8.20;5.50;;;10.30;99.90;;;;;;5052867;28;20048;-75
2023/05/05 04:42:57;;;;;;;8.90;5.72;;;10.30;99.90;;;;;;5053845;28;20127;-75
2023/05/05 04:45:23;;;;;;;9.60;5.90;;;10.30;99.90;;;;;;5054843;28;20056;-76
2023/05/05 04:47:48;;;;;;;8.10;6.03;;;10.30;99.90;;;;;;5053762;28;20045;-75
2023/05/05 04:50:15;;;;;;;9.55;5.40;;;10.30;99.90;;;;;;5053553;28;20041;-75
2023/05/05 04:52:41;;;;;;;13.00;6.47;;;10.30;99.90;;;;;;5053787;28;20051;-75
2023/05/05 04:55:08;;;;;;;7.80;5.60;;;10.30;99.90;;;;;;5053986;28;20128;-75
2023/05/05 04:57:33;;;;;;;8.88;5.20;;;10.30;99.90;;;;;;5053741;28;20076;-74
2023/05/05 05:00:00;;;;;;;9.48;5.10;;;10.30;99.90;;;;;;5052667;28;20497;-75
2023/05/05 05:02:26;;;;;;;8.45;5.40;;;10.30;99.90;;;;;;5053703;28;20092;-75
2023/05/05 05:04:51;;;;;;;8.25;6.07;;;10.40;99.90;;;;;;5052456;28;20103;-75
2023/05/05 05:07:17;;;;;;;8.75;5.35;;;10.40;99.90;;;;;;5035838;28;20049;-75
2023/05/05 05:09:43;;;;;;;7.82;5.95;;;10.40;99.90;;;;;;5053596;28;20076;-75
2023/05/05 05:12:08;;;;;;;6.50;5.03;;;10.40;99.90;;;;;;5052618;28;20044;-74
2023/05/05 05:14:37;;;;;;;8.77;5.10;;;10.40;99.90;;;;;;5054061;28;20454;-75
2023/05/05 05:17:04;;;;;;;9.13;5.25;;;10.40;99.90;;;;;;5053292;28;20373;-75
2023/05/05 05:19:29;;;;;;;6.97;5.28;;;10.40;99.90;;;;;;5053450;28;20383;-75
2023/05/05 05:21:55;;;;;;;7.95;5.85;;;10.50;99.90;;;;;;5052395;28;20060;-75
2023/05/05 05:24:21;;;;;;;8.85;5.78;;;10.50;99.90;;;;;;5052484;28;20421;-75
2023/05/05 05:26:47;;;;;;;7.60;5.18;;;10.50;99.90;;;;;;5052427;28;20045;-75
2023/05/05 05:29:12;;;;;;;7.70;5.28;;;10.50;99.90;;;;;;5053396;28;20048;-75
2023/05/05 05:31:38;;;;;;;6.75;5.22;;;10.50;99.90;;;;;;5053411;28;20044;-75
2023/05/05 05:34:04;;;;;;;8.20;5.88;;;10.50;99.90;;;;;;5053390;28;20409;-75
2023/05/05 05:36:30;;;;;;;9.50;5.43;;;10.50;99.90;;;;;;5054175;28;20052;-75
2023/05/05 05:38:56;;;;;;;6.85;5.35;;;10.60;99.90;;;;;;5053382;28;20041;-75
2023/05/05 05:41:22;;;;;;;6.82;5.13;;;10.60;99.90;;;;;;5052415;28;20079;-75
2023/05/05 05:43:47;;;;;;;7.65;5.53;;;10.70;99.90;;;;;;5052010;28;20057;-74
2023/05/05 05:46:13;;;;;;;8.05;5.55;;;10.70;99.90;;;;;;5053304;28;20056;-75
2023/05/05 05:48:39;;;;;;;8.48;5.32;;;10.80;99.90;;;;;;5053720;28;20123;-74
2023/05/05 05:51:05;;;;;;;7.95;5.50;;;10.80;99.90;;;;;;5051979;28;20390;-75
2023/05/05 05:53:31;;;;;;;7.40;5.00;;;10.80;99.90;;;;;;5053251;28;20103;-75
2023/05/05 05:55:56;;;;;;;7.32;5.75;;;10.80;99.90;;;;;;5035824;28;20039;-74
2023/05/05 05:58:22;;;;;;;6.85;5.22;;;10.90;99.90;;;;;;5053058;28;20190;-75
2023/05/05 06:00:48;;;;;;;6.97;5.28;;;11.00;99.90;;;;;;5051919;28;20040;-75
2023/05/05 06:03:13;;;;;;;9.15;6.07;;;11.10;99.90;;;;;;5053066;28;20521;-76
2023/05/05 06:05:39;;;;;;;8.50;5.53;;;11.20;99.90;;;;;;5053360;28;20378;-74
2023/05/05 06:08:05;;;;;;;11.27;5.90;;;11.20;99.90;;;;;;5052049;28;20052;-74
2023/05/05 06:10:31;;;;;;;6.95;5.60;;;11.30;99.90;;;;;;5052984;28;20052;-67
2023/05/05 06:12:56;;;;;;;7.25;5.32;;;11.40;99.90;;;;;;5053783;28;20049;-68
2023/05/05 06:15:22;;;;;;;9.27;5.43;;;11.40;99.90;;;;;;5052892;28;20051;-68
2023/05/05 06:17:48;;;;;;;7.25;5.43;;;11.50;99.90;;;;;;5053325;28;20131;-68
2023/05/05 06:20:13;;;;;;;6.68;5.25;;;11.50;99.90;;;;;;5035130;28;20040;-68
2023/05/05 06:22:39;;;;;;;7.93;5.38;;;11.60;99.90;;;;;;5052922;28;20398;-68
2023/05/05 06:25:05;;;;;;;9.23;5.18;;;11.60;99.90;;;;;;5051571;28;20045;-68
2023/05/05 06:27:31;;;;;;;7.18;5.18;;;11.60;99.90;;;;;;5053149;28;20067;-68
2023/05/05 06:29:57;;;;;;;8.13;5.47;;;11.60;99.90;;;;;;5053129;28;20041;-70
2023/05/05 06:32:22;;;;;;;8.73;5.30;;;11.70;99.90;;;;;;5036557;28;20084;-68
2023/05/05 06:34:48;;;;;;;6.50;5.55;;;11.70;99.90;;;;;;5056203;28;20041;-68
2023/05/05 06:37:14;;;;;;;10.13;5.72;;;11.80;99.90;;;;;;5055135;28;20040;-68
2023/05/05 06:39:40;;;;;;;7.90;5.15;;;11.80;99.90;;;;;;5055039;28;20040;-68
2023/05/05 06:42:06;;;;;;;10.32;5.93;;;11.90;99.90;;;;;;5056289;28;20061;-68
2023/05/05 06:44:33;;;;;;;8.07;5.93;;;12.00;99.90;;;;;;5055225;28;20379;-68
2023/05/05 06:46:59;;;;;;;9.27;5.80;;;12.10;99.90;;;;;;5056655;28;20106;-68
2023/05/05 06:49:24;;;;;;;7.80;5.75;;;12.20;99.90;;;;;;5056152;28;20287;-69
2023/05/05 06:51:50;;;;;;;11.20;5.88;;;12.20;99.90;;;;;;5054762;28;20045;-68
2023/05/05 06:54:16;;;;;;;8.40;5.65;;;12.30;99.90;;;;;;5056611;28;20049;-69
2023/05/05 06:56:45;;;;;;;9.15;6.18;;;12.30;99.90;;;;;;5055972;28;20084;-68
2023/05/05 06:59:11;;;;;;;8.45;5.80;;;12.40;99.90;;;;;;5055952;28;20099;-68
2023/05/05 07:01:36;;;;;;;9.60;6.72;;;12.40;99.90;;;;;;5055876;28;20052;-68
2023/05/05 07:04:02;;;;;;;8.57;6.13;;;12.40;99.90;;;;;;5055765;28;20045;-68
2023/05/05 07:06:28;;;;;;;9.15;5.93;;;12.50;99.90;;;;;;5054611;28;20405;-68
2023/05/05 07:08:54;;;;;;;7.97;6.45;;;12.60;99.90;;;;;;5055752;28;20154;-68
2023/05/05 07:11:20;;;;;;;8.60;6.20;;;12.50;99.90;;;;;;5055960;28;20116;-69
2023/05/05 07:13:45;;;;;;;8.25;5.85;;;12.50;99.90;;;;;;5055509;28;20496;-68
2023/05/05 07:16:11;;;;;;;11.32;7.30;;;12.60;99.90;;;;;;5054945;28;20049;-70
2023/05/05 07:18:37;;;;;;;9.80;6.45;;;12.60;99.90;;;;;;5055350;28;20103;-71
2023/05/05 07:21:05;;;;;;;7.57;6.22;;;12.70;99.90;;;;;;5055221;28;20366;-68
2023/05/05 07:23:31;;;;;;;9.50;7.10;;;12.80;99.90;;;;;;5054272;28;20428;-69
2023/05/05 07:25:57;;;;;;;9.40;7.22;;;12.80;99.90;;;;;;5056030;28;20083;-73
2023/05/05 07:28:22;;;;;;;10.52;7.25;;;12.90;99.90;;;;;;5055192;28;20048;-70
2023/05/05 07:30:48;;;;;;;9.65;6.93;;;13.00;99.90;;;;;;5055797;28;20052;-70
2023/05/05 07:33:14;;;;;;;9.85;7.40;;;13.10;99.90;;;;;;5055265;28;20049;-69
2023/05/05 07:35:40;;;;;;;11.40;6.32;;;13.20;99.90;;;;;;5054090;28;20434;-69
2023/05/05 07:38:05;;;;;;;10.57;7.57;;;13.30;99.90;;;;;;5055085;28;20045;-70
2023/05/05 07:40:32;;;;;;;9.27;6.72;;;13.40;99.90;;;;;;5054024;28;20131;-69
2023/05/05 07:42:58;;;;;;;10.52;6.72;;;13.60;99.90;;;;;;5055004;28;20088;-70
2023/05/05 07:45:24;;;;;;;10.52;7.18;;;13.60;99.90;;;;;;5053864;28;20170;-70
2023/05/05 07:47:50;;;;;;;9.13;6.72;;;13.70;99.90;;;;;;5054520;28;20111;-70
2023/05/05 07:50:16;;;;;;;10.18;7.03;;;13.80;99.90;;;;;;5054799;28;20052;-71
2023/05/05 07:52:42;;;;;;;10.40;7.43;;;13.90;99.90;;;;;;5054720;28;20102;-69
2023/05/05 07:55:08;;;;;;;11.00;7.40;;;14.00;99.90;;;;;;5054838;28;20045;-69
2023/05/05 07:57:33;;;;;;;9.00;7.30;;;14.10;99.90;;;;;;5054464;28;20111;-69
2023/05/05 07:59:59;;;;;;;11.60;7.32;;;14.20;99.90;;;;;;5054504;28;20128;-67
2023/05/05 08:02:25;;;;;;;10.93;7.60;;;14.30;99.90;;;;;;5054648;28;20053;-68
2023/05/05 08:04:50;;;;;;;8.60;7.00;;;14.40;99.90;;;;;;5053295;28;20106;-70
2023/05/05 08:07:16;;;;;;;10.30;7.32;;;14.50;99.90;;;;;;5054499;28;20053;-70
2023/05/05 08:09:42;;;;;;;9.50;7.95;;;14.60;99.90;;;;;;5053556;28;20053;-68
2023/05/05 08:12:07;;;;;;;10.43;7.15;;;14.70;99.90;;;;;;5055196;28;20048;-68
2023/05/05 08:14:33;;;;;;;10.88;8.35;;;14.90;99.90;;;;;;5054388;28;20052;-69
2023/05/05 08:16:59;;;;;;;10.90;7.65;;;15.00;99.90;;;;;;5054339;28;20045;-68
2023/05/05 08:19:25;;;;;;;9.98;7.93;;;15.10;99.90;;;;;;5036922;28;20374;-69
2023/05/05 08:21:50;;;;;;;11.73;8.23;;;15.20;99.90;;;;;;5054238;28;20059;-69
2023/05/05 08:24:16;;;;;;;11.57;7.53;;;15.40;99.90;;;;;;5054959;28;20547;-68
2023/05/05 08:26:42;;;;;;;9.25;7.60;;;15.40;99.90;;;;;;5054198;28;20134;-68
2023/05/05 08:29:07;;;;;;;12.73;8.30;;;15.60;99.90;;;;;;5054091;28;20393;-68
2023/05/05 08:31:38;;;;;;;11.32;7.97;;;15.70;99.90;;;;;;5054474;28;20037;-68
2023/05/05 08:34:05;;;;;;;9.63;7.38;;;15.80;99.90;;;;;;5053543;28;20537;-68
2023/05/05 08:36:31;;;;;;;10.65;7.95;;;15.80;99.90;;;;;;5054025;28;20540;-68
2023/05/05 08:38:58;;;;;;;10.23;7.80;;;15.90;99.90;;;;;;5053927;28;20048;-70
2023/05/05 08:41:25;;;;;;;11.32;8.07;;;16.00;99.90;;;;;;5053388;28;20096;-70
2023/05/05 08:43:51;;;;;;;12.55;8.55;;;16.20;99.90;;;;;;5054131;28;20115;-70
2023/05/05 08:46:16;;;;;;;14.10;8.85;;;16.30;99.90;;;;;;5053784;28;20127;-69
2023/05/05 08:48:43;;;;;;;9.70;8.35;;;16.40;99.90;;;;;;5053594;28;20045;-70
2023/05/05 08:51:17;;;;;;;11.43;8.57;;;16.40;99.90;;;;;;5054491;28;20076;-68
2023/05/05 08:53:53;;;;;;;17.20;8.52;;;16.60;99.90;;;;;;5053337;28;20056;-69
2023/05/05 08:56:23;;;;;;;9.60;8.15;;;16.70;99.90;;;;;;5053284;28;20045;-68
2023/05/05 08:58:50;;;;;;;12.00;9.52;;;17.00;99.90;;;;;;5053553;28;20500;-68
2023/05/05 09:01:17;;;;;;;10.65;8.88;;;17.10;99.90;;;;;;5053519;28;20084;-70
2023/05/05 09:03:43;;;;;;;13.45;8.98;;;17.30;99.90;;;;;;5052717;28;20053;-69
2023/05/05 09:06:09;;;;;;;11.68;8.82;;;17.40;99.90;;;;;;5052861;28;20048;-68
2023/05/05 09:08:38;;;;;;;10.27;8.05;;;17.50;99.90;;;;;;5053481;28;20048;-68
2023/05/05 09:11:04;;;;;;;9.30;7.35;;;17.60;99.90;;;;;;5053458;28;20087;-69
2023/05/05 09:13:31;;;;;;;10.35;7.80;;;17.70;99.90;;;;;;5053442;28;20052;-69
2023/05/05 09:15:57;;;;;;;9.65;7.90;;;17.80;99.90;;;;;;5053742;28;20381;-68
2023/05/05 09:18:23;;;;;;;10.90;8.25;;;17.90;99.90;;;;;;5053079;28;20489;-68
2023/05/05 09:20:49;;;;;;;11.15;8.15;;;18.10;99.90;;;;;;5052181;28;20048;-69
2023/05/05 09:23:17;;;;;;;9.52;8.27;;;18.20;99.90;;;;;;5053040;28;20060;-70
2023/05/05 09:25:44;;;;;;;11.38;8.50;;;18.20;99.90;;;;;;5053442;28;20048;-68
2023/05/05 09:28:14;;;;;;;9.50;8.23;;;18.30;99.90;;;;;;5053395;28;20132;-70
2023/05/05 09:30:42;;;;;;;9.82;7.95;;;18.50;99.90;;;;;;5054146;28;20377;-68
2023/05/05 09:33:08;;;;;;;11.95;8.50;;;18.70;99.90;;;;;;5051987;28;20478;-68
2023/05/05 09:35:52;;;;;;;11.32;7.47;;;18.80;99.90;;;;;;5053357;28;20056;-68
2023/05/05 09:38:19;;;;;;;13.60;7.82;;;18.80;99.90;;;;;;5053299;28;20208;-69
2023/05/05 09:40:47;;;;;;;9.90;7.70;;;18.80;99.90;;;;;;5053172;28;20041;-68
2023/05/05 09:43:13;;;;;;;10.07;7.93;;;18.80;99.90;;;;;;5053964;28;20048;-69
2023/05/05 09:45:38;;;;;;;12.13;8.27;;;18.90;99.90;;;;;;5052811;28;20500;-70
2023/05/05 09:48:07;;;;;;;15.88;9.15;;;19.10;99.90;;;;;;5053048;28;20052;-69
2023/05/05 09:50:43;;;;;;;9.38;7.70;;;19.30;99.90;;;;;;5053068;28;20041;-69
2023/05/05 09:53:10;;;;;;;9.95;8.25;;;19.50;99.90;;;;;;5051864;28;20454;-69
2023/05/05 09:55:36;;;;;;;10.32;8.20;;;19.40;99.90;;;;;;5053082;28;20047;-69
2023/05/05 09:58:25;;;;;;;11.32;7.72;;;19.50;99.90;;;;;;5053302;28;20037;-70
2023/05/05 10:00:52;;;;;;;10.45;8.82;;;19.50;99.90;;;;;;5053744;28;20045;-69
2023/05/05 10:03:18;;;;;;;12.65;8.73;;;19.70;99.90;;;;;;5053117;28;20436;-71
2023/05/05 10:05:52;;;;;;;10.20;8.55;;;19.90;99.90;;;;;;5053895;28;20045;-69
2023/05/05 10:08:20;;;;;;;10.57;8.68;;;20.10;99.90;;;;;;5055480;28;20057;-69
2023/05/05 10:10:59;;;;;;;12.52;9.63;;;20.20;99.90;;;;;;5057624;28;20090;-69
2023/05/05 10:13:26;;;;;;;16.15;8.75;;;20.20;99.90;;;;;;5057326;28;20072;-71
2023/05/05 10:15:54;;;;;;;11.98;9.25;;;20.10;99.90;;;;;;5055731;28;20462;-70
2023/05/05 10:18:24;;;;;;;12.00;9.35;;;20.00;99.90;;;;;;5056601;28;20049;-70
2023/05/05 10:21:02;;;;;;;11.90;9.25;;;19.80;99.90;;;;;;5056208;28;20490;-70
2023/05/05 10:23:40;;;;;;;10.73;9.15;;;19.90;99.90;;;;;;5056473;28;20045;-71
2023/05/05 10:26:09;;;;;;;11.30;9.32;;;20.00;99.90;;;;;;5057048;28;20542;-71
2023/05/05 10:28:54;;;;;;;14.32;8.80;;;20.20;99.90;;;;;;5055457;28;20045;-70
2023/05/05 10:31:43;;;;;;;12.10;9.35;;;20.30;99.90;;;;;;5056192;28;20167;-70
2023/05/05 10:34:11;;;;;;;10.25;9.00;;;20.30;99.90;;;;;;5056379;28;20124;-69
2023/05/05 10:36:38;;;;;;;11.32;8.82;;;20.40;99.90;;;;;;5056610;28;20044;-69
2023/05/05 10:39:05;;;;;;;12.90;10.00;;;20.50;99.90;;;;;;5056054;28;20382;-70
2023/05/05 10:41:32;;;;;;;12.43;9.48;;;20.50;99.90;;;;;;5055812;28;20045;-73
2023/05/05 10:43:59;;;;;;;12.63;8.90;;;20.40;99.90;;;;;;5055673;28;20057;-70
2023/05/05 10:46:26;;;;;;;10.27;9.07;;;20.20;99.90;;;;;;5038698;28;20051;-70
2023/05/05 10:49:09;;;;;;;12.20;9.95;;;20.20;99.90;;;;;;5055741;28;20138;-72
2023/05/05 10:51:41;;;;;;;11.85;9.60;;;20.30;99.90;;;;;;5056039;28;20037;-72
2023/05/05 10:54:15;;;;;;;13.30;9.68;;;20.60;99.90;;;;;;5055702;28;20461;-71
2023/05/05 10:56:41;;;;;;;11.18;9.20;;;20.90;99.90;;;;;;5056582;28;20382;-71
2023/05/05 10:59:38;;;;;;;10.98;8.27;;;21.30;99.90;;;;;;5054884;28;20051;-70
2023/05/05 11:02:28;;;;;;;8.80;7.65;;;21.40;99.90;;;;;;5055503;28;20486;-71
2023/05/05 11:05:22;;;;;;;10.95;7.60;;;21.20;99.90;;;;;;5055506;28;20425;-70
2023/05/05 11:07:49;;;;;;;10.63;7.43;;;20.90;99.90;;;;;;5056535;28;20114;-67
2023/05/05 11:10:22;;;;;;;10.20;7.72;;;20.70;99.90;;;;;;5055534;28;20155;-68
2023/05/05 11:12:50;;;;;;;10.25;7.53;;;20.50;99.90;;;;;;5055976;28;20044;-70
2023/05/05 11:15:25;;;;;;;10.02;7.30;;;20.30;99.90;;;;;;5055747;28;20385;-68
2023/05/05 11:17:52;;;;;;;9.65;7.05;;;20.40;99.90;;;;;;5055298;28;20162;-71
2023/05/05 11:20:38;;;;;;;7.85;6.35;;;20.50;99.90;;;;;;5055260;28;20398;-70
2023/05/05 11:23:04;;;;;;;9.07;6.40;;;20.50;99.90;;;;;;5055350;28;20053;-71
2023/05/05 11:25:35;;;;;;;5.80;4.97;;;20.50;99.90;;;;;;5055423;28;20060;-70
2023/05/05 11:28:15;;;;;;;6.28;4.50;;;20.60;99.90;;;;;;5055915;28;20079;-70
2023/05/05 11:30:57;;;;;;;5.78;4.70;;;20.60;99.90;;;;;;5055627;28;20477;-70
2023/05/05 11:33:24;;;;;;;6.95;4.50;;;20.50;99.90;;;;;;5055258;28;20048;-69
2023/05/05 11:35:54;;;;;;;7.93;6.00;;;20.30;99.90;;;;;;5055780;28;20053;-70
2023/05/05 11:38:51;;;;;;;7.47;5.32;;;20.30;99.90;;;;;;5054060;28;20127;-68
2023/05/05 11:41:34;;;;;;;6.85;4.50;;;20.30;99.90;;;;;;5054794;28;20053;-69
2023/05/05 11:44:15;;;;;;;6.00;4.03;;;20.30;99.90;;;;;;5055821;28;20370;-68
2023/05/05 11:47:04;;;;;;;6.15;4.03;;;20.40;99.90;;;;;;5055677;28;20162;-68
2023/05/05 11:49:35;;;;;;;5.68;3.70;;;20.50;99.90;;;;;;5039764;28;20166;-68
2023/05/05 11:52:06;;;;;;;4.47;2.70;;;20.40;99.90;;;;;;5037419;28;20080;-68
2023/05/05 11:54:35;;;;;;;3.92;2.53;;;20.40;99.90;;;;;;5054798;28;20044;-67
2023/05/05 11:57:04;;;;;;;4.82;3.45;;;20.30;99.90;;;;;;5053814;28;20443;-68
2023/05/05 11:59:36;;;;;;;5.95;3.90;;;20.30;99.90;;;;;;5054701;28;20048;-68
2023/05/05 12:02:02;;;;;;;4.03;2.92;;;20.20;99.90;;;;;;5055421;28;20052;-67
2023/05/05 12:04:30;;;;;;;5.65;3.45;;;20.20;99.90;;;;;;5054688;28;20130;-68
2023/05/05 12:06:57;;;;;;;5.70;3.10;;;20.20;99.90;;;;;;5054706;28;20095;-68
2023/05/05 12:09:23;;;;;;;3.53;2.70;;;20.10;99.90;;;;;;5054684;28;20045;-68
2023/05/05 12:11:53;;;;;;;5.03;3.63;;;19.90;99.90;;;;;;5054562;28;20052;-67
2023/05/05 12:14:19;;;;;;;6.18;3.72;;;19.90;99.90;;;;;;5054564;28;20048;-67
2023/05/05 12:17:10;;;;;;;5.10;3.45;;;19.80;99.90;;;;;;5053751;28;20061;-67
2023/05/05 12:19:35;;;;;;;4.53;3.38;;;19.80;99.90;;;;;;5054262;28;20067;-68
2023/05/05 12:22:03;;;;;;;4.45;2.63;;;19.70;99.90;;;;;;5054349;28;20045;-67
2023/05/05 12:24:29;;;;;;;4.78;2.70;;;19.70;99.90;;;;;;5054272;28;20081;-68
2023/05/05 12:27:05;;;;;;;4.53;2.50;;;19.50;99.90;;;;;;5053897;28;20494;-67
2023/05/05 12:29:31;;;;;;;3.85;2.30;;;19.30;99.90;;;;;;5054715;28;20483;-67
2023/05/05 12:31:58;;;;;;;4.05;2.00;;;19.20;99.90;;;;;;5053717;28;20052;-69
2023/05/05 12:34:25;;;;;;;4.70;2.10;;;19.10;99.90;;;;;;5054381;28;20402;-67
2023/05/05 12:36:51;;;;;;;3.75;2.35;;;19.00;99.90;;;;;;5054082;28;20060;-67
2023/05/05 12:39:17;;;;;;;3.80;2.50;;;19.00;99.90;;;;;;5054059;28;20126;-67
2023/05/05 12:41:43;;;;;;;3.42;2.25;;;18.90;99.90;;;;;;5054301;28;20438;-67
2023/05/05 12:44:09;;;;;;;3.33;2.17;;;18.80;99.90;;;;;;5054207;28;20123;-67
2023/05/05 12:46:45;;;;;;;4.65;3.15;;;18.70;99.90;;;;;;5053977;28;20053;-67
2023/05/05 12:49:11;;;;;;;5.05;3.50;;;18.70;99.90;;;;;;5053870;28;20053;-67
2023/05/05 12:51:38;;;;;;;5.25;2.67;;;18.60;99.90;;;;;;5054626;28;20463;-68